Time;durP1;ratioP1;P1;durP2;ratioP2;P2;SDS_P1;SDS_P2;PMS_P1;PMS_P2;Temp;Humidity;BMP_temperature;BMP_pressure;BME280_temperature;BME280_humidity;BME280_pressure;Samples;Min_cycle;Max_cycle;Signal;HPM_P1;HPM_P2
2021/09/02 00:00:45;;;;;;;;;;;;;;;20.01;67.09;102580.59;4998424;28;1871;-61
2021/09/02 00:03:11;;;;;;;;;;;;;;;20.03;66.87;102585.88;4998961;28;1014;-61
2021/09/02 00:05:36;;;;;;;;;;;;;;;20.01;67.58;102580.59;4998657;28;898;-61
2021/09/02 00:08:01;;;;;;;;;;;;;;;20.01;66.98;102577.03;4999185;28;1914;-61
2021/09/02 00:10:26;;;;;;;;;;;;;;;20.00;67.37;102586.13;4999218;28;1049;-61
2021/09/02 00:12:51;;;;;;;;;;;;;;;20.00;66.50;102575.28;4998945;28;1874;-63
2021/09/02 00:15:16;;;;;;;;;;;;;;;20.00;67.53;102580.72;4998610;28;1061;-62
2021/09/02 00:17:41;;;;;;;;;;;;;;;19.99;66.69;102579.84;4998511;28;1836;-61
2021/09/02 00:20:06;;;;;;;;;;;;;;;19.99;66.85;102577.13;4998433;28;1599;-61
2021/09/02 00:22:31;;;;;;;;;;;;;;;19.99;66.47;102584.41;4998309;28;1867;-61
2021/09/02 00:24:56;;;;;;;;;;;;;;;20.00;67.58;102580.72;4998794;28;1231;-62
2021/09/02 00:27:21;;;;;;;;;;;;;;;19.99;66.97;102584.41;4998937;28;1960;-62
2021/09/02 00:29:46;;;;;;;;;;;;;;;19.99;67.28;102581.69;4998698;28;1642;-62
2021/09/02 00:32:12;;;;;;;;;;;;;;;19.97;67.27;102579.09;4998021;28;1748;-61
2021/09/02 00:34:37;;;;;;;;;;;;;;;19.97;66.65;102575.53;4998848;28;962;-61
2021/09/02 00:37:02;;;;;;;;;;;;;;;19.97;66.88;102576.38;4998509;28;1818;-61
2021/09/02 00:39:27;;;;;;;;;;;;;;;19.96;67.27;102579.22;4980691;28;1845;-61
2021/09/02 00:41:52;;;;;;;;;;;;;;;19.96;66.74;102579.22;4998636;28;821;-62
2021/09/02 00:44:17;;;;;;;;;;;;;;;19.96;66.73;102584.63;4998245;28;1010;-64
2021/09/02 00:46:42;;;;;;;;;;;;;;;19.96;66.49;102580.06;4998368;28;1894;-65
2021/09/02 00:49:07;;;;;;;;;;;;;;;19.95;67.38;102578.34;4998010;28;1805;-64
2021/09/02 00:51:32;;;;;;;;;;;;;;;19.95;67.05;102577.47;4998151;28;1767;-64
2021/09/02 00:53:57;;;;;;;;;;;;;;;19.95;67.03;102582.91;4997763;28;1365;-64
2021/09/02 00:56:22;;;;;;;;;;;;;;;19.94;67.39;102571.22;4998061;28;859;-65
2021/09/02 00:58:47;;;;;;;;;;;;;;;19.94;67.12;102573.06;4997856;28;1821;-64
2021/09/02 01:01:12;;;;;;;;;;;;;;;19.94;66.76;102575.75;4998164;28;856;-64
2021/09/02 01:03:38;;;;;;;;;;;;;;;19.94;66.89;102570.34;4998185;28;1168;-64
2021/09/02 01:06:03;;;;;;;;;;;;;;;19.93;66.69;102568.63;4997869;28;1918;-64
2021/09/02 01:08:28;;;;;;;;;;;;;;;19.93;66.90;102566.78;4997772;28;1965;-64
2021/09/02 01:10:53;;;;;;;;;;;;;;;19.93;67.23;102563.22;4997685;28;974;-64
2021/09/02 01:13:18;;;;;;;;;;;;;;;19.93;66.88;102563.22;4997996;28;880;-64
2021/09/02 01:15:43;;;;;;;;;;;;;;;19.92;66.60;102558.78;4998025;28;814;-63
2021/09/02 01:18:08;;;;;;;;;;;;;;;19.91;67.18;102559.75;4997908;28;1977;-64
2021/09/02 01:20:33;;;;;;;;;;;;;;;19.91;66.60;102557.03;4997188;28;1507;-64
2021/09/02 01:22:58;;;;;;;;;;;;;;;19.91;66.79;102557.03;4997462;28;981;-64
2021/09/02 01:25:23;;;;;;;;;;;;;;;19.91;66.56;102551.63;4997648;28;885;-64
2021/09/02 01:27:48;;;;;;;;;;;;;;;19.91;67.08;102546.22;4997101;28;1991;-64
2021/09/02 01:30:13;;;;;;;;;;;;;;;19.89;67.47;102550.88;4997773;28;954;-64
2021/09/02 01:32:38;;;;;;;;;;;;;;;19.89;66.74;102553.59;4980635;28;721;-64
2021/09/02 01:35:03;;;;;;;;;;;;;;;19.89;66.65;102545.47;4997130;28;1836;-63
2021/09/02 01:37:29;;;;;;;;;;;;;;;19.88;67.10;102552.75;4997289;28;903;-64
2021/09/02 01:39:54;;;;;;;;;;;;;;;19.88;66.88;102550.06;4997353;28;998;-64
2021/09/02 01:42:19;;;;;;;;;;;;;;;19.87;66.93;102553.75;4997573;28;1061;-64
2021/09/02 01:44:44;;;;;;;;;;;;;;;19.87;67.10;102558.28;4997026;28;1910;-64
2021/09/02 01:47:09;;;;;;;;;;;;;;;19.87;67.09;102558.28;4996994;28;1894;-64
2021/09/02 01:49:34;;;;;;;;;;;;;;;19.86;66.93;102561.97;4997461;28;855;-64
2021/09/02 01:51:59;;;;;;;;;;;;;;;19.86;67.50;102551.16;4996829;28;970;-62
2021/09/02 01:54:24;;;;;;;;;;;;;;;19.86;67.19;102556.56;4996673;28;1900;-63
2021/09/02 01:56:49;;;;;;;;;;;;;;;19.85;66.83;102553.00;4996537;28;1077;-63
2021/09/02 01:59:14;;;;;;;;;;;;;;;19.85;67.18;102541.31;4997017;28;931;-63
2021/09/02 02:01:40;;;;;;;;;;;;;;;19.85;66.72;102550.28;4996619;28;998;-63
2021/09/02 02:04:05;;;;;;;;;;;;;;;19.84;67.14;102543.16;4996694;28;1752;-62
2021/09/02 02:06:30;;;;;;;;;;;;;;;19.84;67.54;102540.44;4996983;28;1966;-61
2021/09/02 02:08:55;;;;;;;;;;;;;;;19.84;67.07;102542.28;4996859;28;998;-62
2021/09/02 02:11:20;;;;;;;;;;;;;;;19.84;67.58;102536.88;4996696;28;1006;-62
2021/09/02 02:13:45;;;;;;;;;;;;;;;19.84;67.84;102531.47;4996419;28;1942;-62
2021/09/02 02:16:10;;;;;;;;;;;;;;;19.83;67.33;102529.75;4996351;28;1022;-62
2021/09/02 02:18:35;;;;;;;;;;;;;;;19.83;67.06;102532.44;4996160;28;1018;-62
2021/09/02 02:21:00;;;;;;;;;;;;;;;19.83;66.71;102535.16;4995952;28;799;-64
2021/09/02 02:23:25;;;;;;;;;;;;;;;19.82;67.54;102533.41;4996368;28;1861;-64
2021/09/02 02:25:50;;;;;;;;;;;;;;;19.82;67.27;102528.00;4996139;28;1949;-64
2021/09/02 02:28:15;;;;;;;;;;;;;;;19.81;66.86;102540.69;4996787;28;839;-64
2021/09/02 02:30:40;;;;;;;;;;;;;;;19.81;67.27;102546.09;4996031;28;990;-64
2021/09/02 02:33:05;;;;;;;;;;;;;;;19.80;67.29;102541.66;4996111;28;1797;-62
2021/09/02 02:35:31;;;;;;;;;;;;;;;19.80;67.02;102547.06;4996292;28;964;-62
2021/09/02 02:37:56;;;;;;;;;;;;;;;19.79;67.25;102537.22;4996422;28;994;-62
2021/09/02 02:40:21;;;;;;;;;;;;;;;19.78;66.92;102535.50;4996341;28;1049;-63
2021/09/02 02:42:46;;;;;;;;;;;;;;;19.79;66.79;102539.06;4996203;28;1908;-63
2021/09/02 02:45:11;;;;;;;;;;;;;;;19.79;67.09;102536.34;4995947;28;1057;-64
2021/09/02 02:47:36;;;;;;;;;;;;;;;19.79;66.67;102541.75;4995982;28;1898;-63
2021/09/02 02:50:01;;;;;;;;;;;;;;;19.77;67.33;102540.03;4996287;28;943;-63
2021/09/02 02:52:26;;;;;;;;;;;;;;;19.77;67.18;102537.34;4995366;28;1769;-63
2021/09/02 02:54:51;;;;;;;;;;;;;;;19.77;67.10;102534.63;4995852;28;1968;-63
2021/09/02 02:57:16;;;;;;;;;;;;;;;19.77;67.23;102531.06;4996081;28;1076;-64
2021/09/02 02:59:41;;;;;;;;;;;;;;;19.75;67.26;102525.75;4995508;28;834;-64
2021/09/02 03:02:06;;;;;;;;;;;;;;;19.76;67.25;102534.75;4995773;28;1756;-62
2021/09/02 03:04:31;;;;;;;;;;;;;;;19.75;67.01;102528.47;4996075;28;871;-64
2021/09/02 03:06:57;;;;;;;;;;;;;;;19.75;66.98;102533.88;4995302;28;1914;-64
2021/09/02 03:09:22;;;;;;;;;;;;;;;19.75;67.04;102530.31;4995875;28;1046;-65
2021/09/02 03:11:47;;;;;;;;;;;;;;;19.74;66.38;102532.16;4978001;28;1770;-64
2021/09/02 03:14:12;;;;;;;;;;;;;;;19.73;66.86;102530.44;4995460;28;994;-65
2021/09/02 03:16:37;;;;;;;;;;;;;;;19.73;66.66;102529.56;4978356;28;852;-64
2021/09/02 03:19:02;;;;;;;;;;;;;;;19.73;67.15;102530.44;4995941;28;891;-65
2021/09/02 03:21:27;;;;;;;;;;;;;;;19.74;66.59;102532.16;4995578;28;995;-65
2021/09/02 03:23:52;;;;;;;;;;;;;;;19.72;66.70;102523.28;4995124;28;1770;-65
2021/09/02 03:26:17;;;;;;;;;;;;;;;19.73;66.92;102529.56;4995828;28;1961;-65
2021/09/02 03:28:42;;;;;;;;;;;;;;;19.72;67.66;102534.13;4995793;28;875;-65
2021/09/02 03:31:07;;;;;;;;;;;;;;;19.72;66.47;102531.41;4995602;28;842;-65
2021/09/02 03:33:33;;;;;;;;;;;;;;;19.72;66.69;102517.03;4995688;28;1887;-62
2021/09/02 03:35:58;;;;;;;;;;;;;;;19.71;66.50;102526.97;4995537;28;910;-61
2021/09/02 03:38:23;;;;;;;;;;;;;;;19.70;66.62;102519.00;4995142;28;1006;-61
2021/09/02 03:40:48;;;;;;;;;;;;;;;19.71;67.00;102524.28;4995439;28;910;-63
2021/09/02 03:43:13;;;;;;;;;;;;;;;19.71;66.70;102523.41;4994078;28;1954;-64
2021/09/02 03:45:38;;;;;;;;;;;;;;;19.71;67.26;102521.56;4995576;28;861;-65
2021/09/02 03:48:03;;;;;;;;;;;;;;;19.70;66.92;102519.88;4977964;28;1965;-65
2021/09/02 03:50:28;;;;;;;;;;;;;;;19.70;67.01;102514.47;4995024;28;919;-65
2021/09/02 03:52:53;;;;;;;;;;;;;;;19.69;67.24;102517.28;4995080;28;1679;-63
2021/09/02 03:55:18;;;;;;;;;;;;;;;19.68;66.85;102516.41;4994943;28;1826;-63
2021/09/02 03:57:44;;;;;;;;;;;;;;;19.68;66.94;102520.97;4995658;28;1025;-60
2021/09/02 04:00:09;;;;;;;;;;;;;;;19.68;66.90;102516.41;4995774;28;922;-61
2021/09/02 04:02:34;;;;;;;;;;;;;;;19.67;66.83;102514.69;4995267;28;1688;-61
2021/09/02 04:04:59;;;;;;;;;;;;;;;19.68;67.14;102520.97;4995571;28;1010;-61
2021/09/02 04:07:24;;;;;;;;;;;;;;;19.67;67.24;102506.56;4995229;28;1919;-62
2021/09/02 04:09:49;;;;;;;;;;;;;;;19.67;67.32;102520.09;4995769;28;1028;-62
2021/09/02 04:12:14;;;;;;;;;;;;;;;19.66;67.12;102526.50;4994895;28;1847;-62
2021/09/02 04:14:39;;;;;;;;;;;;;;;19.67;66.72;102524.66;4995439;28;1788;-62
2021/09/02 04:17:04;;;;;;;;;;;;;;;19.67;66.83;102520.09;4994889;28;920;-61
2021/09/02 04:19:29;;;;;;;;;;;;;;;19.67;66.88;102524.66;4996217;28;824;-62
2021/09/02 04:21:54;;;;;;;;;;;;;;;19.66;66.89;102518.38;4998756;28;1825;-61
2021/09/02 04:24:20;;;;;;;;;;;;;;;19.66;67.65;102520.22;4998774;28;1733;-62
2021/09/02 04:26:45;;;;;;;;;;;;;;;19.65;66.88;102519.34;4998572;28;1961;-63
2021/09/02 04:29:10;;;;;;;;;;;;;;;19.65;66.68;102515.78;4998975;28;911;-63
2021/09/02 04:31:35;;;;;;;;;;;;;;;19.65;67.15;102511.25;4997962;28;1804;-62
2021/09/02 04:34:00;;;;;;;;;;;;;;;19.64;67.03;102514.91;4997582;28;1863;-62
2021/09/02 04:36:25;;;;;;;;;;;;;;;19.63;66.55;102515.91;4998661;28;1249;-64
2021/09/02 04:38:50;;;;;;;;;;;;;;;19.64;66.91;102519.47;4997966;28;895;-62
2021/09/02 04:41:15;;;;;;;;;;;;;;;19.63;67.01;102513.19;4998619;28;1668;-62
2021/09/02 04:43:40;;;;;;;;;;;;;;;19.63;66.88;102513.19;4998237;28;1766;-63
2021/09/02 04:46:06;;;;;;;;;;;;;;;19.63;67.09;102506.91;4998447;28;1906;-62
2021/09/02 04:48:31;;;;;;;;;;;;;;;19.62;67.07;102507.91;4998075;28;912;-62
2021/09/02 04:50:56;;;;;;;;;;;;;;;19.63;67.43;102510.50;4997184;28;1624;-59
2021/09/02 04:53:21;;;;;;;;;;;;;;;19.63;67.49;102513.19;4997146;28;1365;-59
2021/09/02 04:55:46;;;;;;;;;;;;;;;19.62;66.88;102511.47;4997441;28;1532;-60
2021/09/02 04:58:11;;;;;;;;;;;;;;;19.63;67.18;102506.91;4998038;28;1038;-59
2021/09/02 05:00:36;;;;;;;;;;;;;;;19.62;67.47;102516.88;4997892;28;1895;-59
2021/09/02 05:03:01;;;;;;;;;;;;;;;19.63;67.62;102517.75;4998037;28;882;-60
2021/09/02 05:05:26;;;;;;;;;;;;;;;19.63;67.15;102517.75;4998083;28;1050;-60
2021/09/02 05:07:51;;;;;;;;;;;;;;;19.63;67.25;102512.34;4997287;28;1955;-60
2021/09/02 05:10:16;;;;;;;;;;;;;;;19.62;67.26;102525.00;4996874;28;1653;-60
2021/09/02 05:12:41;;;;;;;;;;;;;;;19.62;67.36;102525.00;4997001;28;1736;-61
2021/09/02 05:15:06;;;;;;;;;;;;;;;19.62;67.67;102530.41;4996917;28;1651;-61
2021/09/02 05:17:31;;;;;;;;;;;;;;;19.62;67.80;102533.09;4996510;28;1519;-60
2021/09/02 05:19:57;;;;;;;;;;;;;;;19.62;67.58;102532.25;4997028;28;1516;-60
2021/09/02 05:22:22;;;;;;;;;;;;;;;19.61;67.85;102528.69;4997292;28;1646;-61
2021/09/02 05:24:47;;;;;;;;;;;;;;;19.62;67.66;102529.53;4997021;28;1629;-61
2021/09/02 05:27:12;;;;;;;;;;;;;;;19.61;67.80;102536.78;4996699;28;1968;-61
2021/09/02 05:29:37;;;;;;;;;;;;;;;19.60;68.07;102529.66;4997105;28;1606;-60
2021/09/02 05:32:02;;;;;;;;;;;;;;;19.61;67.26;102536.78;4996929;28;1773;-60
2021/09/02 05:34:27;;;;;;;;;;;;;;;19.61;66.76;102536.78;4997124;28;935;-61
2021/09/02 05:36:52;;;;;;;;;;;;;;;19.62;67.74;102526.84;4997117;28;879;-60
2021/09/02 05:39:17;;;;;;;;;;;;;;;19.60;67.24;102526.94;4997108;28;1706;-60
2021/09/02 05:41:42;;;;;;;;;;;;;;;19.61;66.92;102522.41;4997554;28;920;-61
2021/09/02 05:44:11;;;;;;;;;;;;;;;19.59;67.64;102517.09;4997329;28;998;-60
2021/09/02 05:46:36;;;;;;;;;;;;;;;19.60;68.25;102528.78;4997075;28;1890;-60
2021/09/02 05:49:01;;;;;;;;;;;;;;;19.60;67.72;102521.53;4996863;28;1924;-60
2021/09/02 05:51:26;;;;;;;;;;;;;;;19.60;67.10;102529.66;4996285;28;1619;-60
2021/09/02 05:53:51;;;;;;;;;;;;;;;19.60;67.62;102524.25;4996528;28;899;-60
2021/09/02 05:56:16;;;;;;;;;;;;;;;19.60;67.91;102523.38;4997515;28;1155;-60
2021/09/02 05:58:42;;;;;;;;;;;;;;;19.60;67.70;102520.69;4995454;28;1903;-60
2021/09/02 06:01:07;;;;;;;;;;;;;;;19.60;67.87;102521.53;4995893;28;1416;-60
2021/09/02 06:03:32;;;;;;;;;;;;;;;19.60;67.60;102526.94;4995662;28;1671;-60
2021/09/02 06:05:57;;;;;;;;;;;;;;;19.60;67.67;102524.25;4996836;28;1964;-61
2021/09/02 06:08:22;;;;;;;;;;;;;;;19.60;67.70;102526.09;4996252;28;1751;-60
2021/09/02 06:10:47;;;;;;;;;;;;;;;19.59;67.07;102525.22;4996481;28;1081;-60
2021/09/02 06:13:12;;;;;;;;;;;;;;;19.60;67.07;102524.25;4996506;28;1495;-60
2021/09/02 06:15:37;;;;;;;;;;;;;;;19.60;67.54;102518.84;4996672;28;858;-60
2021/09/02 06:18:02;;;;;;;;;;;;;;;19.61;66.86;102517.00;4996326;28;835;-61
2021/09/02 06:20:28;;;;;;;;;;;;;;;19.61;67.24;102517.84;4996198;28;1891;-61
2021/09/02 06:22:54;;;;;;;;;;;;;;;19.62;67.58;102522.28;4995963;28;905;-61
2021/09/02 06:25:19;;;;;;;;;;;;;;;19.62;67.31;102526.84;4995874;28;1021;-60
2021/09/02 06:27:44;;;;;;;;;;;;;;;19.62;67.68;102522.28;4995545;28;1936;-62
2021/09/02 06:30:09;;;;;;;;;;;;;;;19.62;67.87;102524.13;4996036;28;1002;-60
2021/09/02 06:32:34;;;;;;;;;;;;;;;19.62;67.56;102522.28;4995741;28;1057;-60
2021/09/02 06:34:59;;;;;;;;;;;;;;;19.63;67.19;102528.56;4985958;28;1066;-60
2021/09/02 06:37:24;;;;;;;;;;;;;;;19.62;67.15;102516.88;4985092;28;1752;-60
2021/09/02 06:39:50;;;;;;;;;;;;;;;19.63;67.56;102525.84;4984594;28;1586;-60
2021/09/02 06:42:15;;;;;;;;;;;;;;;19.64;67.51;102524.88;4985404;28;1217;-60
2021/09/02 06:44:40;;;;;;;;;;;;;;;19.65;67.16;102523.91;4983224;28;1343;-60
2021/09/02 06:47:05;;;;;;;;;;;;;;;19.65;67.36;102521.19;4993844;28;1950;-60
2021/09/02 06:49:30;;;;;;;;;;;;;;;19.66;66.89;102529.19;4996286;28;920;-61
2021/09/02 06:51:55;;;;;;;;;;;;;;;19.66;67.01;102518.38;4995799;28;820;-61
2021/09/02 06:54:20;;;;;;;;;;;;;;;19.68;66.62;102518.25;4995949;28;1135;-61
2021/09/02 06:56:45;;;;;;;;;;;;;;;19.69;67.07;102520.00;4995851;28;804;-61
2021/09/02 06:59:11;;;;;;;;;;;;;;;19.69;67.06;102520.84;4995626;28;1891;-60
2021/09/02 07:01:36;;;;;;;;;;;;;;;19.72;67.43;102520.59;4995966;28;859;-61
2021/09/02 07:04:01;;;;;;;;;;;;;;;19.72;66.69;102526.00;4995603;28;998;-61
2021/09/02 07:06:26;;;;;;;;;;;;;;;19.73;66.91;102525.03;4995488;28;1970;-60
2021/09/02 07:08:51;;;;;;;;;;;;;;;19.75;66.81;102522.19;4995401;28;875;-61
2021/09/02 07:11:16;;;;;;;;;;;;;;;19.75;67.17;102524.91;4995873;28;812;-60
2021/09/02 07:13:41;;;;;;;;;;;;;;;19.75;67.00;102523.06;4993991;28;990;-60
2021/09/02 07:16:06;;;;;;;;;;;;;;;19.77;66.97;102525.66;4995314;28;1615;-60
2021/09/02 07:18:31;;;;;;;;;;;;;;;19.77;66.85;102521.09;4995231;28;867;-61
2021/09/02 07:20:56;;;;;;;;;;;;;;;19.77;67.06;102521.09;4995363;28;1077;-61
2021/09/02 07:23:21;;;;;;;;;;;;;;;19.80;66.94;102521.84;4977782;28;959;-60
2021/09/02 07:25:46;;;;;;;;;;;;;;;19.80;66.67;102525.41;4977560;28;1693;-60
2021/09/02 07:28:11;;;;;;;;;;;;;;;19.82;67.40;102528.00;4995151;28;1956;-60
2021/09/02 07:30:37;;;;;;;;;;;;;;;19.82;67.08;102525.31;4995207;28;831;-60
2021/09/02 07:33:02;;;;;;;;;;;;;;;19.82;66.88;102530.72;4995414;28;883;-60
2021/09/02 07:35:27;;;;;;;;;;;;;;;19.83;66.26;102536.00;4995261;28;1699;-62
2021/09/02 07:37:52;;;;;;;;;;;;;;;19.83;66.79;102529.75;4995092;28;1097;-60
2021/09/02 07:40:17;;;;;;;;;;;;;;;19.84;66.86;102547.69;4994937;28;899;-60
2021/09/02 07:42:42;;;;;;;;;;;;;;;19.82;66.45;102539.69;4994955;28;1841;-60
2021/09/02 07:45:07;;;;;;;;;;;;;;;19.84;66.24;102545.84;4995267;28;883;-60
2021/09/02 07:47:34;;;;;;;;;;;;;;;19.84;66.36;102545.84;4994953;28;1941;-60
2021/09/02 07:50:00;;;;;;;;;;;;;;;19.85;66.63;102546.72;4994956;28;1229;-61
2021/09/02 07:52:25;;;;;;;;;;;;;;;19.85;66.55;102558.41;4994626;28;1689;-60
2021/09/02 07:54:50;;;;;;;;;;;;;;;19.85;65.98;102549.41;4997639;28;1197;-60
2021/09/02 07:57:15;;;;;;;;;;;;;;;19.85;65.35;102547.59;4998850;28;855;-60
2021/09/02 07:59:40;;;;;;;;;;;;;;;19.86;65.75;102548.44;4999184;28;911;-60
2021/09/02 08:02:05;;;;;;;;;;;;;;;19.86;66.08;102556.56;4998421;28;1780;-60
2021/09/02 08:04:30;;;;;;;;;;;;;;;19.86;64.91;102551.16;4998571;28;1567;-60
2021/09/02 08:06:55;;;;;;;;;;;;;;;19.86;66.01;102554.72;4998585;28;1974;-61
2021/09/02 08:09:20;;;;;;;;;;;;;;;19.87;65.26;102553.75;4998561;28;807;-61
2021/09/02 08:11:45;;;;;;;;;;;;;;;19.87;64.76;102555.59;4998564;28;1639;-60
2021/09/02 08:14:10;;;;;;;;;;;;;;;19.88;64.92;102560.03;4998670;28;887;-60
2021/09/02 08:16:35;;;;;;;;;;;;;;;19.89;65.16;102559.00;4998558;28;848;-60
2021/09/02 08:19:01;;;;;;;;;;;;;;;19.89;64.75;102559.00;4998624;28;1041;-60
2021/09/02 08:21:26;;;;;;;;;;;;;;;19.89;65.06;102564.41;4998451;28;1630;-61
2021/09/02 08:23:52;;;;;;;;;;;;;;;19.89;64.46;102562.56;4998408;28;831;-61
2021/09/02 08:26:17;;;;;;;;;;;;;;;19.90;64.40;102563.44;4998154;28;1898;-60
2021/09/02 08:28:42;;;;;;;;;;;;;;;19.91;63.94;102562.47;4998366;28;879;-60
2021/09/02 08:31:07;;;;;;;;;;;;;;;19.91;64.88;102566.03;4998451;28;1784;-60
2021/09/02 08:33:32;;;;;;;;;;;;;;;19.92;64.93;102558.78;4998244;28;966;-60
2021/09/02 08:35:57;;;;;;;;;;;;;;;19.93;64.93;102557.78;4997526;28;1724;-61
2021/09/02 08:38:22;;;;;;;;;;;;;;;19.94;64.03;102562.22;4996625;28;1480;-61
2021/09/02 08:40:47;;;;;;;;;;;;;;;19.94;64.25;102565.81;4995459;28;1463;-61
2021/09/02 08:43:13;;;;;;;;;;;;;;;19.95;64.18;102574.78;4996348;28;1533;-60
2021/09/02 08:45:38;;;;;;;;;;;;;;;19.96;65.11;102565.69;4996925;28;1391;-61
2021/09/02 08:48:03;;;;;;;;;;;;;;;19.97;64.02;102570.13;4993928;28;2286;-60
2021/09/02 08:50:28;;;;;;;;;;;;;;;19.98;64.48;102569.13;4981272;28;1735;-60
2021/09/02 08:52:53;;;;;;;;;;;;;;;19.99;64.12;102571.72;4981416;28;1662;-60
2021/09/02 08:55:18;;;;;;;;;;;;;;;20.00;63.81;102575.28;4981205;28;1392;-60
2021/09/02 08:57:44;;;;;;;;;;;;;;;20.02;64.49;102565.22;4977064;28;1667;-61
2021/09/02 09:00:10;;;;;;;;;;;;;;;20.04;63.36;102566.81;4983729;28;2003;-60
2021/09/02 09:02:35;;;;;;;;;;;;;;;20.06;64.41;102564.00;4993226;28;1318;-60
2021/09/02 09:05:01;;;;;;;;;;;;;;;20.09;63.50;102569.16;4996241;28;1600;-60
2021/09/02 09:07:26;;;;;;;;;;;;;;;20.11;63.90;102573.47;4997028;28;1933;-61
2021/09/02 09:09:51;;;;;;;;;;;;;;;20.13;63.81;102567.94;4992827;28;1308;-61
2021/09/02 09:12:16;;;;;;;;;;;;;;;20.15;62.99;102571.41;4987642;28;1763;-61
2021/09/02 09:14:41;;;;;;;;;;;;;;;20.18;63.69;102570.28;4995807;28;1849;-60
2021/09/02 09:17:06;;;;;;;;;;;;;;;20.20;63.12;102566.50;4992674;28;1847;-60
2021/09/02 09:19:32;;;;;;;;;;;;;;;20.22;63.72;102561.81;4987422;28;1458;-61
2021/09/02 09:21:57;;;;;;;;;;;;;;;20.24;63.53;102561.72;4990721;28;1659;-59
2021/09/02 09:24:22;;;;;;;;;;;;;;;20.23;63.23;102566.25;4991235;28;1237;-59
2021/09/02 09:26:47;;;;;;;;;;;;;;;20.27;63.85;102566.84;4990194;28;1982;-59
2021/09/02 09:29:12;;;;;;;;;;;;;;;20.27;62.92;102564.16;4995289;28;1778;-60
2021/09/02 09:31:37;;;;;;;;;;;;;;;20.34;62.98;102558.13;4996363;28;1230;-61
2021/09/02 09:34:02;;;;;;;;;;;;;;;20.49;63.37;102563.34;4997121;28;1527;-59
2021/09/02 09:36:28;;;;;;;;;;;;;;;20.53;63.04;102562.13;5007290;28;2154;-60
2021/09/02 09:38:53;;;;;;;;;;;;;;;20.71;62.87;102563.38;5016477;28;1281;-59
2021/09/02 09:41:19;;;;;;;;;;;;;;;20.79;61.73;102567.16;5006888;28;1501;-60
2021/09/02 09:43:44;;;;;;;;;;;;;;;20.72;62.40;102556.97;5011039;28;1345;-62
2021/09/02 09:46:09;;;;;;;;;;;;;;;20.72;62.76;102563.25;5003322;28;1894;-62
2021/09/02 09:48:34;;;;;;;;;;;;;;;20.73;62.83;102558.69;4983877;28;1651;-62
2021/09/02 09:50:59;;;;;;;;;;;;;;;20.75;63.13;102545.88;4994596;28;1425;-62
2021/09/02 09:53:24;;;;;;;;;;;;;;;20.74;61.28;102546.88;4991602;28;1215;-63
2021/09/02 09:55:49;;;;;;;;;;;;;;;20.77;61.43;102543.91;4988843;28;1298;-63
2021/09/02 09:58:14;;;;;;;;;;;;;;;20.86;60.78;102548.56;4993104;28;1608;-62
2021/09/02 10:00:39;;;;;;;;;;;;;;;20.83;60.94;102548.81;4992784;28;1209;-63
2021/09/02 10:03:04;;;;;;;;;;;;;;;20.88;60.78;102549.31;4992426;28;1283;-63
2021/09/02 10:05:29;;;;;;;;;;;;;;;20.92;60.92;102550.78;4992693;28;1261;-62
2021/09/02 10:07:54;;;;;;;;;;;;;;;20.98;60.65;102541.28;4992413;28;1967;-63
2021/09/02 10:10:19;;;;;;;;;;;;;;;20.98;60.36;102547.56;4992876;28;1194;-64
2021/09/02 10:12:44;;;;;;;;;;;;;;;20.99;60.59;102543.84;4992732;28;1469;-62
2021/09/02 10:15:10;;;;;;;;;;;;;;;21.07;60.43;102535.09;4992387;28;1475;-62
2021/09/02 10:17:35;;;;;;;;;;;;;;;21.10;60.36;102537.56;4992079;28;1156;-62
2021/09/02 10:20:00;;;;;;;;;;;;;;;21.06;60.16;102541.50;4992368;28;1457;-61
2021/09/02 10:22:25;;;;;;;;;;;;;;;21.11;60.40;102537.44;4992598;28;1504;-62
2021/09/02 10:24:50;;;;;;;;;;;;;;;21.09;60.04;102542.13;4993503;28;1723;-63
2021/09/02 10:27:15;;;;;;;;;;;;;;;21.09;60.08;102536.72;4994467;28;1938;-63
2021/09/02 10:29:40;;;;;;;;;;;;;;;21.02;60.28;102549.03;4995703;28;1725;-64
2021/09/02 10:32:05;;;;;;;;;;;;;;;20.97;60.87;102531.41;4982196;28;1419;-64
2021/09/02 10:34:30;;;;;;;;;;;;;;;20.95;60.79;102539.69;4980000;28;1579;-63
2021/09/02 10:36:55;;;;;;;;;;;;;;;20.91;61.23;102532.81;4983286;28;1632;-64
2021/09/02 10:39:20;;;;;;;;;;;;;;;20.90;61.36;102532.94;4977832;28;1617;-64
2021/09/02 10:41:47;;;;;;;;;;;;;;;20.86;60.94;102532.31;4985865;28;1451;-63
2021/09/02 10:44:12;;;;;;;;;;;;;;;20.85;61.01;102533.28;4982471;28;1555;-64
2021/09/02 10:46:37;;;;;;;;;;;;;;;20.83;61.29;102526.28;4982531;28;1954;-64
2021/09/02 10:49:02;;;;;;;;;;;;;;;20.87;61.45;102523.19;4984766;28;1668;-65
2021/09/02 10:51:27;;;;;;;;;;;;;;;20.83;61.20;102521.72;4976352;28;1693;-64
2021/09/02 10:53:52;;;;;;;;;;;;;;;20.87;60.93;102514.19;4983409;28;1311;-64
2021/09/02 10:56:17;;;;;;;;;;;;;;;20.88;60.72;102526.75;4990949;28;1496;-65
2021/09/02 10:58:42;;;;;;;;;;;;;;;20.92;61.38;102526.41;4984998;28;1246;-64
2021/09/02 11:01:08;;;;;;;;;;;;;;;20.96;61.20;102521.59;4985811;28;1475;-61
2021/09/02 11:03:33;;;;;;;;;;;;;;;20.99;61.18;102515.88;4989786;28;1539;-62
2021/09/02 11:05:58;;;;;;;;;;;;;;;21.07;61.85;102516.13;4988719;28;1387;-62
2021/09/02 11:08:23;;;;;;;;;;;;;;;21.02;60.94;102527.34;4986921;28;1975;-62
2021/09/02 11:10:48;;;;;;;;;;;;;;;21.15;61.97;102519.91;4988171;28;1503;-62
2021/09/02 11:13:15;;;;;;;;;;;;;;;21.19;61.00;102516.94;4986230;28;1450;-62
2021/09/02 11:15:40;;;;;;;;;;;;;;;21.20;61.19;102510.56;4994062;28;1848;-62
2021/09/02 11:18:05;;;;;;;;;;;;;;;21.23;61.37;102513.91;4995091;28;1896;-61
2021/09/02 11:20:30;;;;;;;;;;;;;;;21.26;61.16;102518.22;4991246;28;1761;-63
2021/09/02 11:22:56;;;;;;;;;;;;;;;21.27;61.00;102514.50;4983297;28;1565;-63
2021/09/02 11:25:21;;;;;;;;;;;;;;;21.30;60.85;102514.25;4985348;28;1935;-61
2021/09/02 11:27:46;;;;;;;;;;;;;;;21.22;60.31;102514.88;4987760;28;1965;-62
2021/09/02 11:30:11;;;;;;;;;;;;;;;21.30;61.28;102508.84;4990108;28;1497;-63
2021/09/02 11:32:36;;;;;;;;;;;;;;;21.35;60.38;102509.28;4981673;28;1555;-63
2021/09/02 11:35:01;;;;;;;;;;;;;;;21.39;60.50;102508.91;4987726;28;1500;-62
2021/09/02 11:37:26;;;;;;;;;;;;;;;21.36;60.79;102509.16;4988405;28;1535;-61
2021/09/02 11:39:52;;;;;;;;;;;;;;;21.43;60.33;102509.50;4993532;28;1355;-61
2021/09/02 11:42:17;;;;;;;;;;;;;;;21.36;59.68;102503.72;4992502;28;1662;-61
2021/09/02 11:44:42;;;;;;;;;;;;;;;21.37;59.80;102504.59;4990719;28;1472;-63
2021/09/02 11:47:07;;;;;;;;;;;;;;;21.44;59.81;102505.81;4993167;28;1902;-63
2021/09/02 11:49:32;;;;;;;;;;;;;;;21.50;59.67;102502.56;4987927;28;1348;-64
2021/09/02 11:51:58;;;;;;;;;;;;;;;21.46;59.23;102491.13;4989690;28;1420;-63
2021/09/02 11:54:23;;;;;;;;;;;;;;;21.57;60.42;102490.19;4992362;28;1660;-61
2021/09/02 11:56:48;;;;;;;;;;;;;;;21.52;59.70;102492.44;4975549;28;1710;-62
2021/09/02 11:59:13;;;;;;;;;;;;;;;21.59;60.32;102487.38;4990605;28;1655;-63
2021/09/02 12:01:38;;;;;;;;;;;;;;;21.66;60.58;102486.72;4987738;28;1849;-63
2021/09/02 12:04:03;;;;;;;;;;;;;;;21.66;59.59;102475.88;4987647;28;1360;-63
2021/09/02 12:06:28;;;;;;;;;;;;;;;21.63;60.26;102476.13;4990428;28;1907;-63
2021/09/02 12:08:53;;;;;;;;;;;;;;;21.66;60.36;102478.59;4986244;28;1371;-63
2021/09/02 12:11:19;;;;;;;;;;;;;;;21.67;59.18;102480.31;4987010;28;1500;-64
2021/09/02 12:13:44;;;;;;;;;;;;;;;21.75;58.33;102485.06;4987140;28;1423;-62
2021/09/02 12:16:09;;;;;;;;;;;;;;;21.80;58.69;102480.97;4990386;28;1380;-62
2021/09/02 12:18:35;;;;;;;;;;;;;;;21.81;59.01;102482.69;4993090;28;1498;-62
2021/09/02 12:21:00;;;;;;;;;;;;;;;21.88;59.08;102479.41;4990453;28;1572;-65
2021/09/02 12:23:25;;;;;;;;;;;;;;;21.90;59.23;102478.28;4989097;28;1550;-64
2021/09/02 12:25:50;;;;;;;;;;;;;;;21.92;58.04;102472.72;4988024;28;1551;-61
2021/09/02 12:28:15;;;;;;;;;;;;;;;21.99;58.95;102479.34;4988009;28;1961;-63
2021/09/02 12:30:40;;;;;;;;;;;;;;;21.96;57.81;102480.47;4990211;28;1709;-65
2021/09/02 12:33:05;;;;;;;;;;;;;;;21.96;58.04;102471.47;4986921;28;1508;-62
2021/09/02 12:35:30;;;;;;;;;;;;;;;21.99;58.61;102468.50;4989647;28;1355;-62
2021/09/02 12:37:55;;;;;;;;;;;;;;;22.04;58.27;102467.09;4987001;28;1340;-61